sensor_id;sensor_type;location;lat;lon;timestamp;P1;durP1;ratioP1;P2;durP2;ratioP2
31906;SDS011;18455;50.858;13.662;2022-08-21T00:04:30;58.45;;;34.65;;
31906;SDS011;18455;50.858;13.662;2022-08-21T00:09:30;63.42;;;35.25;;
31906;SDS011;18455;50.858;13.662;2022-08-21T00:14:31;61.35;;;35.05;;
31906;SDS011;18455;50.858;13.662;2022-08-21T00:19:31;61.58;;;36.30;;
31906;SDS011;18455;50.858;13.662;2022-08-21T00:24:32;69.68;;;40.03;;
31906;SDS011;18455;50.858;13.662;2022-08-21T00:29:32;70.88;;;40.78;;
31906;SDS011;18455;50.858;13.662;2022-08-21T00:34:33;75.78;;;41.38;;
31906;SDS011;18455;50.858;13.662;2022-08-21T00:39:33;87.60;;;46.15;;
31906;SDS011;18455;50.858;13.662;2022-08-21T00:44:34;81.07;;;44.83;;
31906;SDS011;18455;50.858;13.662;2022-08-21T00:49:34;100.45;;;49.35;;
31906;SDS011;18455;50.858;13.662;2022-08-21T00:54:34;112.45;;;51.28;;
31906;SDS011;18455;50.858;13.662;2022-08-21T00:59:36;88.43;;;46.72;;
31906;SDS011;18455;50.858;13.662;2022-08-21T01:04:37;97.75;;;51.00;;
31906;SDS011;18455;50.858;13.662;2022-08-21T01:09:37;96.40;;;47.78;;
31906;SDS011;18455;50.858;13.662;2022-08-21T01:14:39;91.65;;;47.67;;
31906;SDS011;18455;50.858;13.662;2022-08-21T01:19:42;106.20;;;52.13;;
31906;SDS011;18455;50.858;13.662;2022-08-21T01:24:43;115.60;;;53.97;;
31906;SDS011;18455;50.858;13.662;2022-08-21T01:30:26;135.70;;;56.88;;
31906;SDS011;18455;50.858;13.662;2022-08-21T01:35:12;128.65;;;52.88;;
31906;SDS011;18455;50.858;13.662;2022-08-21T01:40:14;111.50;;;49.65;;
31906;SDS011;18455;50.858;13.662;2022-08-21T01:45:16;130.25;;;55.38;;
31906;SDS011;18455;50.858;13.662;2022-08-21T01:50:17;102.18;;;49.25;;
31906;SDS011;18455;50.858;13.662;2022-08-21T01:55:19;121.25;;;53.83;;
31906;SDS011;18455;50.858;13.662;2022-08-21T02:00:20;109.72;;;49.58;;
31906;SDS011;18455;50.858;13.662;2022-08-21T02:05:25;32.03;;;19.52;;
31906;SDS011;18455;50.858;13.662;2022-08-21T02:10:26;24.40;;;16.67;;
31906;SDS011;18455;50.858;13.662;2022-08-21T02:15:29;28.33;;;15.82;;
31906;SDS011;18455;50.858;13.662;2022-08-21T02:20:32;23.83;;;15.80;;
31906;SDS011;18455;50.858;13.662;2022-08-21T02:25:36;25.75;;;16.52;;
31906;SDS011;18455;50.858;13.662;2022-08-21T02:30:40;28.55;;;16.60;;
31906;SDS011;18455;50.858;13.662;2022-08-21T02:35:43;21.38;;;14.63;;
31906;SDS011;18455;50.858;13.662;2022-08-21T02:40:46;18.50;;;13.07;;
31906;SDS011;18455;50.858;13.662;2022-08-21T02:45:47;19.30;;;12.35;;
31906;SDS011;18455;50.858;13.662;2022-08-21T02:50:51;21.08;;;13.30;;
31906;SDS011;18455;50.858;13.662;2022-08-21T02:55:53;16.73;;;11.32;;
31906;SDS011;18455;50.858;13.662;2022-08-21T03:00:54;16.17;;;11.45;;
31906;SDS011;18455;50.858;13.662;2022-08-21T03:05:55;18.95;;;11.07;;
31906;SDS011;18455;50.858;13.662;2022-08-21T03:10:55;16.42;;;10.32;;
31906;SDS011;18455;50.858;13.662;2022-08-21T03:15:56;14.98;;;9.82;;
31906;SDS011;18455;50.858;13.662;2022-08-21T03:20:56;18.45;;;10.77;;
31906;SDS011;18455;50.858;13.662;2022-08-21T03:25:57;21.13;;;11.98;;
31906;SDS011;18455;50.858;13.662;2022-08-21T03:30:57;17.25;;;11.25;;
31906;SDS011;18455;50.858;13.662;2022-08-21T03:36:01;21.70;;;13.30;;
31906;SDS011;18455;50.858;13.662;2022-08-21T03:41:04;16.67;;;10.82;;
31906;SDS011;18455;50.858;13.662;2022-08-21T03:46:05;21.00;;;11.38;;
31906;SDS011;18455;50.858;13.662;2022-08-21T03:51:06;15.75;;;10.40;;
31906;SDS011;18455;50.858;13.662;2022-08-21T03:56:06;16.13;;;9.25;;
31906;SDS011;18455;50.858;13.662;2022-08-21T04:01:07;20.63;;;10.52;;
31906;SDS011;18455;50.858;13.662;2022-08-21T04:06:07;17.10;;;10.35;;
31906;SDS011;18455;50.858;13.662;2022-08-21T04:11:08;12.63;;;9.40;;
31906;SDS011;18455;50.858;13.662;2022-08-21T04:16:10;15.85;;;10.15;;
31906;SDS011;18455;50.858;13.662;2022-08-21T04:21:11;18.92;;;11.05;;
31906;SDS011;18455;50.858;13.662;2022-08-21T04:26:11;15.45;;;9.43;;
31906;SDS011;18455;50.858;13.662;2022-08-21T04:31:11;12.70;;;9.75;;
31906;SDS011;18455;50.858;13.662;2022-08-21T04:36:12;15.15;;;9.23;;
31906;SDS011;18455;50.858;13.662;2022-08-21T04:41:12;13.10;;;8.70;;
31906;SDS011;18455;50.858;13.662;2022-08-21T04:46:13;13.82;;;8.95;;
31906;SDS011;18455;50.858;13.662;2022-08-21T04:51:22;11.18;;;8.32;;
31906;SDS011;18455;50.858;13.662;2022-08-21T04:56:25;13.65;;;9.18;;
31906;SDS011;18455;50.858;13.662;2022-08-21T05:01:28;12.70;;;10.30;;
31906;SDS011;18455;50.858;13.662;2022-08-21T05:06:31;14.85;;;10.60;;
31906;SDS011;18455;50.858;13.662;2022-08-21T05:11:34;14.02;;;10.43;;
31906;SDS011;18455;50.858;13.662;2022-08-21T05:16:35;14.23;;;10.43;;
31906;SDS011;18455;50.858;13.662;2022-08-21T05:21:37;12.95;;;9.88;;
31906;SDS011;18455;50.858;13.662;2022-08-21T05:26:40;14.02;;;10.32;;
31906;SDS011;18455;50.858;13.662;2022-08-21T05:31:40;12.25;;;9.48;;
31906;SDS011;18455;50.858;13.662;2022-08-21T05:36:41;11.98;;;9.80;;
31906;SDS011;18455;50.858;13.662;2022-08-21T05:41:41;12.95;;;9.32;;
31906;SDS011;18455;50.858;13.662;2022-08-21T05:46:42;11.20;;;8.90;;
31906;SDS011;18455;50.858;13.662;2022-08-21T05:51:42;12.35;;;8.90;;
31906;SDS011;18455;50.858;13.662;2022-08-21T05:56:42;13.35;;;9.15;;
31906;SDS011;18455;50.858;13.662;2022-08-21T06:01:44;13.38;;;10.60;;
31906;SDS011;18455;50.858;13.662;2022-08-21T06:06:45;13.40;;;10.75;;
31906;SDS011;18455;50.858;13.662;2022-08-21T06:11:47;14.85;;;11.15;;
31906;SDS011;18455;50.858;13.662;2022-08-21T06:16:47;17.52;;;12.02;;
31906;SDS011;18455;50.858;13.662;2022-08-21T06:21:48;15.48;;;11.63;;
31906;SDS011;18455;50.858;13.662;2022-08-21T06:26:48;17.05;;;12.15;;
31906;SDS011;18455;50.858;13.662;2022-08-21T06:31:49;18.08;;;14.00;;
31906;SDS011;18455;50.858;13.662;2022-08-21T06:36:50;25.52;;;17.10;;
31906;SDS011;18455;50.858;13.662;2022-08-21T06:41:50;37.47;;;26.70;;
31906;SDS011;18455;50.858;13.662;2022-08-21T06:46:51;34.33;;;26.25;;
31906;SDS011;18455;50.858;13.662;2022-08-21T06:51:51;36.38;;;26.27;;
31906;SDS011;18455;50.858;13.662;2022-08-21T06:56:51;30.38;;;23.88;;
31906;SDS011;18455;50.858;13.662;2022-08-21T07:01:52;26.80;;;22.80;;
31906;SDS011;18455;50.858;13.662;2022-08-21T07:06:52;22.45;;;19.63;;
31906;SDS011;18455;50.858;13.662;2022-08-21T07:11:53;25.35;;;21.23;;
31906;SDS011;18455;50.858;13.662;2022-08-21T07:16:54;26.23;;;20.50;;
31906;SDS011;18455;50.858;13.662;2022-08-21T07:21:57;28.08;;;21.27;;
31906;SDS011;18455;50.858;13.662;2022-08-21T07:27:00;20.17;;;17.60;;
31906;SDS011;18455;50.858;13.662;2022-08-21T07:32:00;20.92;;;17.25;;
31906;SDS011;18455;50.858;13.662;2022-08-21T07:37:01;26.00;;;19.35;;
31906;SDS011;18455;50.858;13.662;2022-08-21T07:42:01;21.48;;;17.25;;
31906;SDS011;18455;50.858;13.662;2022-08-21T07:47:03;22.88;;;16.98;;
31906;SDS011;18455;50.858;13.662;2022-08-21T07:52:03;22.73;;;16.58;;
31906;SDS011;18455;50.858;13.662;2022-08-21T07:57:03;18.63;;;16.35;;
31906;SDS011;18455;50.858;13.662;2022-08-21T08:02:04;19.23;;;16.48;;
31906;SDS011;18455;50.858;13.662;2022-08-21T08:07:04;15.80;;;14.18;;
31906;SDS011;18455;50.858;13.662;2022-08-21T08:12:05;20.55;;;14.63;;
31906;SDS011;18455;50.858;13.662;2022-08-21T08:17:05;18.13;;;14.38;;
31906;SDS011;18455;50.858;13.662;2022-08-21T08:22:13;19.70;;;15.57;;
31906;SDS011;18455;50.858;13.662;2022-08-21T08:27:17;23.77;;;15.13;;
31906;SDS011;18455;50.858;13.662;2022-08-21T08:32:17;16.33;;;14.15;;
31906;SDS011;18455;50.858;13.662;2022-08-21T08:37:19;18.33;;;12.90;;
31906;SDS011;18455;50.858;13.662;2022-08-21T08:42:22;15.88;;;13.40;;
31906;SDS011;18455;50.858;13.662;2022-08-21T08:47:26;16.52;;;12.77;;
31906;SDS011;18455;50.858;13.662;2022-08-21T08:52:31;14.27;;;12.15;;
31906;SDS011;18455;50.858;13.662;2022-08-21T08:57:35;18.20;;;11.85;;
31906;SDS011;18455;50.858;13.662;2022-08-21T09:02:37;15.30;;;10.73;;
31906;SDS011;18455;50.858;13.662;2022-08-21T09:13:13;14.80;;;11.25;;
31906;SDS011;18455;50.858;13.662;2022-08-21T09:24:06;14.30;;;11.32;;
31906;SDS011;18455;50.858;13.662;2022-08-21T09:29:17;12.25;;;10.77;;
31906;SDS011;18455;50.858;13.662;2022-08-21T09:34:29;12.90;;;8.60;;
31906;SDS011;18455;50.858;13.662;2022-08-21T09:39:32;12.30;;;7.50;;
31906;SDS011;18455;50.858;13.662;2022-08-21T09:44:39;10.63;;;8.25;;
31906;SDS011;18455;50.858;13.662;2022-08-21T09:49:43;8.38;;;5.63;;
31906;SDS011;18455;50.858;13.662;2022-08-21T09:54:44;9.63;;;4.65;;
31906;SDS011;18455;50.858;13.662;2022-08-21T09:59:45;9.25;;;4.72;;
31906;SDS011;18455;50.858;13.662;2022-08-21T10:04:50;8.27;;;4.03;;
31906;SDS011;18455;50.858;13.662;2022-08-21T10:10:26;7.53;;;4.00;;
31906;SDS011;18455;50.858;13.662;2022-08-21T10:15:22;6.50;;;3.92;;
31906;SDS011;18455;50.858;13.662;2022-08-21T10:20:39;8.48;;;3.40;;
31906;SDS011;18455;50.858;13.662;2022-08-21T10:25:45;11.40;;;3.28;;
31906;SDS011;18455;50.858;13.662;2022-08-21T10:30:52;8.57;;;3.28;;
31906;SDS011;18455;50.858;13.662;2022-08-21T10:46:46;5.32;;;2.90;;
31906;SDS011;18455;50.858;13.662;2022-08-21T10:52:14;9.88;;;3.40;;
31906;SDS011;18455;50.858;13.662;2022-08-21T11:03:04;4.75;;;2.67;;
31906;SDS011;18455;50.858;13.662;2022-08-21T11:08:11;8.07;;;2.67;;
31906;SDS011;18455;50.858;13.662;2022-08-21T11:19:28;11.50;;;2.75;;
31906;SDS011;18455;50.858;13.662;2022-08-21T11:29:23;6.10;;;2.40;;
31906;SDS011;18455;50.858;13.662;2022-08-21T11:34:39;4.95;;;2.03;;
31906;SDS011;18455;50.858;13.662;2022-08-21T11:40:08;6.70;;;2.20;;
31906;SDS011;18455;50.858;13.662;2022-08-21T11:45:27;4.45;;;2.10;;
31906;SDS011;18455;50.858;13.662;2022-08-21T11:50:33;6.13;;;2.40;;
31906;SDS011;18455;50.858;13.662;2022-08-21T11:55:38;7.95;;;2.25;;
31906;SDS011;18455;50.858;13.662;2022-08-21T12:00:49;5.85;;;2.15;;
31906;SDS011;18455;50.858;13.662;2022-08-21T12:06:05;6.88;;;2.60;;
31906;SDS011;18455;50.858;13.662;2022-08-21T12:11:09;8.55;;;2.30;;
31906;SDS011;18455;50.858;13.662;2022-08-21T12:16:29;6.35;;;2.33;;
31906;SDS011;18455;50.858;13.662;2022-08-21T12:21:47;6.50;;;2.33;;
31906;SDS011;18455;50.858;13.662;2022-08-21T12:26:55;9.38;;;2.50;;
31906;SDS011;18455;50.858;13.662;2022-08-21T12:32:03;9.07;;;2.30;;
31906;SDS011;18455;50.858;13.662;2022-08-21T12:37:40;6.57;;;2.00;;
31906;SDS011;18455;50.858;13.662;2022-08-21T12:42:43;6.30;;;2.38;;
31906;SDS011;18455;50.858;13.662;2022-08-21T12:47:51;7.38;;;2.40;;
31906;SDS011;18455;50.858;13.662;2022-08-21T12:53:04;5.70;;;2.45;;
31906;SDS011;18455;50.858;13.662;2022-08-21T12:58:16;10.25;;;2.75;;
31906;SDS011;18455;50.858;13.662;2022-08-21T13:03:19;10.57;;;2.55;;
31906;SDS011;18455;50.858;13.662;2022-08-21T13:08:21;3.80;;;1.67;;
31906;SDS011;18455;50.858;13.662;2022-08-21T13:13:25;7.30;;;2.10;;
31906;SDS011;18455;50.858;13.662;2022-08-21T13:18:28;6.95;;;1.75;;
31906;SDS011;18455;50.858;13.662;2022-08-21T13:23:29;4.85;;;2.03;;
31906;SDS011;18455;50.858;13.662;2022-08-21T13:28:34;3.95;;;1.77;;
31906;SDS011;18455;50.858;13.662;2022-08-21T13:33:37;5.88;;;1.80;;
31906;SDS011;18455;50.858;13.662;2022-08-21T13:38:39;5.25;;;1.50;;
31906;SDS011;18455;50.858;13.662;2022-08-21T13:43:44;7.57;;;1.65;;
31906;SDS011;18455;50.858;13.662;2022-08-21T13:48:46;6.00;;;1.50;;
31906;SDS011;18455;50.858;13.662;2022-08-21T13:53:48;3.47;;;1.50;;
31906;SDS011;18455;50.858;13.662;2022-08-21T13:58:55;4.68;;;1.60;;
31906;SDS011;18455;50.858;13.662;2022-08-21T14:04:05;4.70;;;1.52;;
31906;SDS011;18455;50.858;13.662;2022-08-21T14:09:13;7.60;;;2.03;;
31906;SDS011;18455;50.858;13.662;2022-08-21T14:14:32;6.35;;;2.00;;
31906;SDS011;18455;50.858;13.662;2022-08-21T14:19:38;6.30;;;1.85;;
31906;SDS011;18455;50.858;13.662;2022-08-21T14:24:40;4.07;;;1.63;;
31906;SDS011;18455;50.858;13.662;2022-08-21T14:29:41;7.47;;;1.90;;
31906;SDS011;18455;50.858;13.662;2022-08-21T14:34:42;6.90;;;1.60;;
31906;SDS011;18455;50.858;13.662;2022-08-21T14:39:42;4.83;;;1.73;;
31906;SDS011;18455;50.858;13.662;2022-08-21T14:44:42;4.47;;;1.40;;
31906;SDS011;18455;50.858;13.662;2022-08-21T14:49:43;5.55;;;1.75;;
31906;SDS011;18455;50.858;13.662;2022-08-21T14:54:43;7.60;;;2.03;;
31906;SDS011;18455;50.858;13.662;2022-08-21T14:59:43;7.57;;;1.93;;
31906;SDS011;18455;50.858;13.662;2022-08-21T15:04:44;7.45;;;1.83;;
31906;SDS011;18455;50.858;13.662;2022-08-21T15:09:44;6.00;;;1.50;;
31906;SDS011;18455;50.858;13.662;2022-08-21T15:14:45;4.72;;;1.50;;
31906;SDS011;18455;50.858;13.662;2022-08-21T15:19:45;3.70;;;1.85;;
31906;SDS011;18455;50.858;13.662;2022-08-21T15:24:46;6.25;;;1.70;;
31906;SDS011;18455;50.858;13.662;2022-08-21T15:29:46;5.20;;;1.80;;
31906;SDS011;18455;50.858;13.662;2022-08-21T15:34:47;3.90;;;1.48;;
31906;SDS011;18455;50.858;13.662;2022-08-21T15:39:48;5.45;;;1.83;;
31906;SDS011;18455;50.858;13.662;2022-08-21T15:44:49;6.25;;;1.65;;
31906;SDS011;18455;50.858;13.662;2022-08-21T15:49:49;5.28;;;1.98;;
31906;SDS011;18455;50.858;13.662;2022-08-21T15:54:50;5.68;;;1.80;;
31906;SDS011;18455;50.858;13.662;2022-08-21T15:59:52;5.65;;;1.52;;
31906;SDS011;18455;50.858;13.662;2022-08-21T16:05:15;5.07;;;1.70;;
31906;SDS011;18455;50.858;13.662;2022-08-21T16:10:18;4.75;;;1.95;;
31906;SDS011;18455;50.858;13.662;2022-08-21T16:15:21;5.00;;;1.67;;
31906;SDS011;18455;50.858;13.662;2022-08-21T16:20:22;5.38;;;1.90;;
31906;SDS011;18455;50.858;13.662;2022-08-21T16:25:25;6.50;;;1.45;;
31906;SDS011;18455;50.858;13.662;2022-08-21T16:30:25;4.38;;;1.63;;
31906;SDS011;18455;50.858;13.662;2022-08-21T16:35:26;2.92;;;1.40;;
31906;SDS011;18455;50.858;13.662;2022-08-21T16:40:27;6.10;;;1.70;;
31906;SDS011;18455;50.858;13.662;2022-08-21T16:45:28;5.50;;;1.85;;
31906;SDS011;18455;50.858;13.662;2022-08-21T16:50:28;12.25;;;1.70;;
31906;SDS011;18455;50.858;13.662;2022-08-21T16:55:29;5.28;;;1.80;;
31906;SDS011;18455;50.858;13.662;2022-08-21T17:00:29;6.63;;;1.80;;
31906;SDS011;18455;50.858;13.662;2022-08-21T17:05:30;8.27;;;2.30;;
31906;SDS011;18455;50.858;13.662;2022-08-21T17:10:30;9.23;;;2.60;;
31906;SDS011;18455;50.858;13.662;2022-08-21T17:15:34;8.63;;;2.30;;
31906;SDS011;18455;50.858;13.662;2022-08-21T17:20:36;8.27;;;2.78;;
31906;SDS011;18455;50.858;13.662;2022-08-21T17:25:38;5.18;;;2.20;;
31906;SDS011;18455;50.858;13.662;2022-08-21T17:30:39;7.22;;;2.20;;
31906;SDS011;18455;50.858;13.662;2022-08-21T17:35:44;6.00;;;1.75;;
31906;SDS011;18455;50.858;13.662;2022-08-21T17:40:45;8.60;;;2.25;;
31906;SDS011;18455;50.858;13.662;2022-08-21T17:45:47;3.17;;;1.88;;
31906;SDS011;18455;50.858;13.662;2022-08-21T17:50:47;12.82;;;2.75;;
31906;SDS011;18455;50.858;13.662;2022-08-21T17:55:48;4.75;;;2.70;;
31906;SDS011;18455;50.858;13.662;2022-08-21T18:00:49;7.97;;;2.83;;
31906;SDS011;18455;50.858;13.662;2022-08-21T18:05:50;8.43;;;3.40;;
31906;SDS011;18455;50.858;13.662;2022-08-21T18:10:52;9.63;;;3.13;;
31906;SDS011;18455;50.858;13.662;2022-08-21T18:15:53;7.65;;;3.15;;
31906;SDS011;18455;50.858;13.662;2022-08-21T18:20:54;5.70;;;3.53;;
31906;SDS011;18455;50.858;13.662;2022-08-21T18:25:55;9.18;;;3.53;;
31906;SDS011;18455;50.858;13.662;2022-08-21T18:30:56;5.35;;;3.60;;
31906;SDS011;18455;50.858;13.662;2022-08-21T18:35:57;9.55;;;4.72;;
31906;SDS011;18455;50.858;13.662;2022-08-21T18:40:57;9.50;;;3.92;;
31906;SDS011;18455;50.858;13.662;2022-08-21T18:45:59;5.32;;;3.83;;
31906;SDS011;18455;50.858;13.662;2022-08-21T18:51:00;5.07;;;3.35;;
31906;SDS011;18455;50.858;13.662;2022-08-21T18:56:01;6.13;;;3.33;;
31906;SDS011;18455;50.858;13.662;2022-08-21T19:01:02;10.43;;;3.83;;
31906;SDS011;18455;50.858;13.662;2022-08-21T19:06:02;5.53;;;3.25;;
31906;SDS011;18455;50.858;13.662;2022-08-21T19:11:03;8.38;;;4.60;;
31906;SDS011;18455;50.858;13.662;2022-08-21T19:16:05;6.75;;;4.35;;
31906;SDS011;18455;50.858;13.662;2022-08-21T19:21:05;4.35;;;3.28;;
31906;SDS011;18455;50.858;13.662;2022-08-21T19:26:06;10.93;;;3.80;;
31906;SDS011;18455;50.858;13.662;2022-08-21T19:36:17;3.80;;;3.03;;
31906;SDS011;18455;50.858;13.662;2022-08-21T19:41:18;9.45;;;3.40;;
31906;SDS011;18455;50.858;13.662;2022-08-21T19:46:25;6.85;;;3.45;;
31906;SDS011;18455;50.858;13.662;2022-08-21T19:51:27;6.78;;;3.03;;
31906;SDS011;18455;50.858;13.662;2022-08-21T19:56:28;8.40;;;3.42;;
31906;SDS011;18455;50.858;13.662;2022-08-21T20:01:29;7.18;;;3.10;;
31906;SDS011;18455;50.858;13.662;2022-08-21T20:06:29;3.63;;;3.25;;
31906;SDS011;18455;50.858;13.662;2022-08-21T20:11:37;10.82;;;3.58;;
31906;SDS011;18455;50.858;13.662;2022-08-21T20:16:49;10.23;;;3.35;;
31906;SDS011;18455;50.858;13.662;2022-08-21T20:21:49;5.63;;;3.28;;
31906;SDS011;18455;50.858;13.662;2022-08-21T20:26:50;4.63;;;3.42;;
31906;SDS011;18455;50.858;13.662;2022-08-21T20:31:50;11.00;;;4.00;;
31906;SDS011;18455;50.858;13.662;2022-08-21T20:36:57;7.47;;;3.05;;
31906;SDS011;18455;50.858;13.662;2022-08-21T20:41:57;5.13;;;3.40;;
31906;SDS011;18455;50.858;13.662;2022-08-21T20:46:58;6.75;;;3.47;;
31906;SDS011;18455;50.858;13.662;2022-08-21T20:51:59;7.25;;;3.67;;
31906;SDS011;18455;50.858;13.662;2022-08-21T20:57:03;7.57;;;3.72;;
31906;SDS011;18455;50.858;13.662;2022-08-21T21:08:55;6.40;;;3.60;;
31906;SDS011;18455;50.858;13.662;2022-08-21T21:14:45;9.60;;;3.78;;
31906;SDS011;18455;50.858;13.662;2022-08-21T21:20:35;8.00;;;3.75;;
31906;SDS011;18455;50.858;13.662;2022-08-21T21:33:46;7.18;;;3.63;;
31906;SDS011;18455;50.858;13.662;2022-08-21T21:38:50;4.07;;;3.13;;
31906;SDS011;18455;50.858;13.662;2022-08-21T21:49:12;5.00;;;3.53;;
31906;SDS011;18455;50.858;13.662;2022-08-21T21:59:40;6.13;;;3.90;;
31906;SDS011;18455;50.858;13.662;2022-08-21T22:10:11;4.87;;;3.40;;
31906;SDS011;18455;50.858;13.662;2022-08-21T22:15:18;11.60;;;3.80;;
31906;SDS011;18455;50.858;13.662;2022-08-21T22:20:20;6.07;;;3.73;;
31906;SDS011;18455;50.858;13.662;2022-08-21T22:25:28;8.37;;;3.77;;
31906;SDS011;18455;50.858;13.662;2022-08-21T22:30:46;6.47;;;3.70;;
31906;SDS011;18455;50.858;13.662;2022-08-21T22:35:50;7.70;;;3.90;;
31906;SDS011;18455;50.858;13.662;2022-08-21T22:40:52;7.43;;;4.40;;
31906;SDS011;18455;50.858;13.662;2022-08-21T22:46:03;10.97;;;3.77;;
31906;SDS011;18455;50.858;13.662;2022-08-21T22:51:10;5.80;;;3.43;;
31906;SDS011;18455;50.858;13.662;2022-08-21T22:56:27;6.17;;;3.70;;
31906;SDS011;18455;50.858;13.662;2022-08-21T23:01:35;9.43;;;3.87;;
31906;SDS011;18455;50.858;13.662;2022-08-21T23:06:40;4.70;;;3.03;;
31906;SDS011;18455;50.858;13.662;2022-08-21T23:11:42;6.77;;;3.93;;
31906;SDS011;18455;50.858;13.662;2022-08-21T23:16:49;3.63;;;3.13;;
31906;SDS011;18455;50.858;13.662;2022-08-21T23:27:21;7.00;;;4.03;;
31906;SDS011;18455;50.858;13.662;2022-08-21T23:37:41;8.60;;;4.30;;
31906;SDS011;18455;50.858;13.662;2022-08-21T23:53:59;7.63;;;3.80;;
